KHLR/HLR METAR and TAF weather

Enter ICAO airport designator
Station Type Date Time Source
KHLR METAR 2022/06/28 09:20 UTC NOAA

KHLR 280920Z AUTO 01006KT 9SM SCT060 BKN110 BKN130 22/21 A3011 RMK AO2 RAE20 SLP184


Station Type Date Time Source
KHLR Decoded METAR 2022/06/28 09:20 UTC NOAA

Fort Hood, Hood AAF Ft Hood, TX, United States (KHLR) 31-08N 097-42W
Jun 28, 2022 - 05:20 AM EDT / 2022.06.28 0920 UTC
Wind: from the N (010 degrees) at 7 MPH (6 KT):0
Visibility: 9 mile(s):0
Sky conditions: mostly cloudy
Temperature: 71 F (22 C)
Dew Point: 69 F (21 C)
Relative Humidity: 94%
Pressure (altimeter): 30.11 in. Hg (1019 hPa)
ob: KHLR 280920Z AUTO 01006KT 9SM SCT060 BKN110 BKN130 22/21 A3011 RMK AO2 RAE20 SLP184
cycle: 9

Station Type Date Time Source
KHLR TAF UTC NOAA

Error!

Example: see airport list